sensor_id;sensor_type;location;lat;lon;timestamp;temperature;humidity
6666;DHT22;3369;49.906;8.598;2024-02-23T00:01:36;8.50;99.90
6666;DHT22;3369;49.906;8.598;2024-02-23T00:04:02;8.50;99.90
6666;DHT22;3369;49.906;8.598;2024-02-23T00:06:28;8.40;99.90
6666;DHT22;3369;49.906;8.598;2024-02-23T00:08:54;8.40;99.90
6666;DHT22;3369;49.906;8.598;2024-02-23T00:11:20;8.40;99.90
6666;DHT22;3369;49.906;8.598;2024-02-23T00:13:46;8.40;99.90
6666;DHT22;3369;49.906;8.598;2024-02-23T00:16:12;8.40;99.90
6666;DHT22;3369;49.906;8.598;2024-02-23T00:18:38;8.40;99.90
6666;DHT22;3369;49.906;8.598;2024-02-23T00:21:04;8.30;99.90
6666;DHT22;3369;49.906;8.598;2024-02-23T00:23:30;8.40;99.90
6666;DHT22;3369;49.906;8.598;2024-02-23T00:25:55;8.30;99.90
6666;DHT22;3369;49.906;8.598;2024-02-23T00:28:21;8.30;99.90
6666;DHT22;3369;49.906;8.598;2024-02-23T00:30:46;8.30;99.90
6666;DHT22;3369;49.906;8.598;2024-02-23T00:33:12;8.30;99.90
6666;DHT22;3369;49.906;8.598;2024-02-23T00:35:38;8.20;99.90
6666;DHT22;3369;49.906;8.598;2024-02-23T00:38:03;8.20;99.90
6666;DHT22;3369;49.906;8.598;2024-02-23T00:40:29;8.20;99.90
6666;DHT22;3369;49.906;8.598;2024-02-23T00:42:55;8.20;99.90
6666;DHT22;3369;49.906;8.598;2024-02-23T00:45:21;8.10;99.90
6666;DHT22;3369;49.906;8.598;2024-02-23T00:47:47;8.10;99.90
6666;DHT22;3369;49.906;8.598;2024-02-23T00:50:13;8.00;99.90
6666;DHT22;3369;49.906;8.598;2024-02-23T00:52:39;8.00;99.90
6666;DHT22;3369;49.906;8.598;2024-02-23T00:55:05;7.90;99.90
6666;DHT22;3369;49.906;8.598;2024-02-23T00:57:31;7.80;99.90
6666;DHT22;3369;49.906;8.598;2024-02-23T00:59:57;7.80;99.90
6666;DHT22;3369;49.906;8.598;2024-02-23T01:02:22;7.80;99.90
6666;DHT22;3369;49.906;8.598;2024-02-23T01:04:48;7.80;99.90
6666;DHT22;3369;49.906;8.598;2024-02-23T01:07:14;7.70;99.90
6666;DHT22;3369;49.906;8.598;2024-02-23T01:09:39;7.70;99.90
6666;DHT22;3369;49.906;8.598;2024-02-23T01:12:05;7.70;99.90
6666;DHT22;3369;49.906;8.598;2024-02-23T01:14:31;7.70;99.90
6666;DHT22;3369;49.906;8.598;2024-02-23T01:16:56;7.70;99.90
6666;DHT22;3369;49.906;8.598;2024-02-23T01:19:22;7.60;99.90
6666;DHT22;3369;49.906;8.598;2024-02-23T01:21:49;7.60;99.90
6666;DHT22;3369;49.906;8.598;2024-02-23T01:24:21;7.50;99.90
6666;DHT22;3369;49.906;8.598;2024-02-23T01:26:46;7.50;99.90
6666;DHT22;3369;49.906;8.598;2024-02-23T01:29:12;7.40;99.90
6666;DHT22;3369;49.906;8.598;2024-02-23T01:31:37;7.30;99.90
6666;DHT22;3369;49.906;8.598;2024-02-23T01:34:03;7.30;99.90
6666;DHT22;3369;49.906;8.598;2024-02-23T01:36:29;7.20;99.90
6666;DHT22;3369;49.906;8.598;2024-02-23T01:38:54;7.20;99.90
6666;DHT22;3369;49.906;8.598;2024-02-23T01:41:20;7.20;99.90
6666;DHT22;3369;49.906;8.598;2024-02-23T01:43:46;7.10;99.90
6666;DHT22;3369;49.906;8.598;2024-02-23T01:46:11;7.10;99.90
6666;DHT22;3369;49.906;8.598;2024-02-23T01:48:37;7.10;99.90
6666;DHT22;3369;49.906;8.598;2024-02-23T01:51:03;7.00;99.90
6666;DHT22;3369;49.906;8.598;2024-02-23T01:53:28;7.00;99.90
6666;DHT22;3369;49.906;8.598;2024-02-23T01:55:55;6.90;99.90
6666;DHT22;3369;49.906;8.598;2024-02-23T01:58:21;6.90;99.90
6666;DHT22;3369;49.906;8.598;2024-02-23T02:00:46;6.90;99.90
6666;DHT22;3369;49.906;8.598;2024-02-23T02:03:12;6.90;99.90
6666;DHT22;3369;49.906;8.598;2024-02-23T02:05:38;6.90;99.90
6666;DHT22;3369;49.906;8.598;2024-02-23T02:08:04;6.90;99.90
6666;DHT22;3369;49.906;8.598;2024-02-23T02:10:30;7.00;99.90
6666;DHT22;3369;49.906;8.598;2024-02-23T02:13:02;6.90;99.90
6666;DHT22;3369;49.906;8.598;2024-02-23T02:15:28;6.90;99.90
6666;DHT22;3369;49.906;8.598;2024-02-23T02:17:54;6.90;99.90
6666;DHT22;3369;49.906;8.598;2024-02-23T02:20:24;6.90;99.90
6666;DHT22;3369;49.906;8.598;2024-02-23T02:22:51;6.80;99.90
6666;DHT22;3369;49.906;8.598;2024-02-23T02:25:17;6.80;99.90
6666;DHT22;3369;49.906;8.598;2024-02-23T02:27:42;6.80;99.90
6666;DHT22;3369;49.906;8.598;2024-02-23T02:30:11;6.80;99.90
6666;DHT22;3369;49.906;8.598;2024-02-23T02:32:37;6.70;99.90
6666;DHT22;3369;49.906;8.598;2024-02-23T02:35:03;6.70;99.90
6666;DHT22;3369;49.906;8.598;2024-02-23T02:37:29;6.60;99.90
6666;DHT22;3369;49.906;8.598;2024-02-23T02:39:54;6.60;99.90
6666;DHT22;3369;49.906;8.598;2024-02-23T02:42:20;6.50;99.90
6666;DHT22;3369;49.906;8.598;2024-02-23T02:44:45;6.50;99.90
6666;DHT22;3369;49.906;8.598;2024-02-23T02:47:11;6.40;99.90
6666;DHT22;3369;49.906;8.598;2024-02-23T02:49:37;6.40;99.90
6666;DHT22;3369;49.906;8.598;2024-02-23T02:52:02;6.40;99.90
6666;DHT22;3369;49.906;8.598;2024-02-23T02:54:28;6.30;99.90
6666;DHT22;3369;49.906;8.598;2024-02-23T02:56:53;6.20;99.90
6666;DHT22;3369;49.906;8.598;2024-02-23T02:59:20;6.20;99.90
6666;DHT22;3369;49.906;8.598;2024-02-23T03:01:45;6.20;99.90
6666;DHT22;3369;49.906;8.598;2024-02-23T03:04:12;6.10;99.90
6666;DHT22;3369;49.906;8.598;2024-02-23T03:06:38;6.10;99.90
6666;DHT22;3369;49.906;8.598;2024-02-23T03:09:03;6.10;99.90
6666;DHT22;3369;49.906;8.598;2024-02-23T03:11:29;6.10;99.90
6666;DHT22;3369;49.906;8.598;2024-02-23T03:13:54;6.10;99.90
6666;DHT22;3369;49.906;8.598;2024-02-23T03:16:20;6.10;99.90
6666;DHT22;3369;49.906;8.598;2024-02-23T03:18:48;6.00;99.90
6666;DHT22;3369;49.906;8.598;2024-02-23T03:21:15;6.00;99.90
6666;DHT22;3369;49.906;8.598;2024-02-23T03:23:41;5.90;99.90
6666;DHT22;3369;49.906;8.598;2024-02-23T03:26:07;5.90;99.90
6666;DHT22;3369;49.906;8.598;2024-02-23T03:28:33;5.90;99.90
6666;DHT22;3369;49.906;8.598;2024-02-23T03:31:00;5.90;99.90
6666;DHT22;3369;49.906;8.598;2024-02-23T03:33:25;5.90;99.90
6666;DHT22;3369;49.906;8.598;2024-02-23T03:35:51;5.80;99.90
6666;DHT22;3369;49.906;8.598;2024-02-23T03:38:16;5.80;99.90
6666;DHT22;3369;49.906;8.598;2024-02-23T03:40:42;5.80;99.90
6666;DHT22;3369;49.906;8.598;2024-02-23T03:43:08;5.70;99.90
6666;DHT22;3369;49.906;8.598;2024-02-23T03:45:33;5.70;99.90
6666;DHT22;3369;49.906;8.598;2024-02-23T03:47:59;5.70;99.90
6666;DHT22;3369;49.906;8.598;2024-02-23T03:50:25;5.70;99.90
6666;DHT22;3369;49.906;8.598;2024-02-23T03:52:51;5.70;99.90
6666;DHT22;3369;49.906;8.598;2024-02-23T03:55:16;5.70;99.90
6666;DHT22;3369;49.906;8.598;2024-02-23T03:57:42;5.80;99.90
6666;DHT22;3369;49.906;8.598;2024-02-23T04:00:08;5.80;99.90
6666;DHT22;3369;49.906;8.598;2024-02-23T04:02:34;5.80;99.90
6666;DHT22;3369;49.906;8.598;2024-02-23T04:05:00;5.80;99.90
6666;DHT22;3369;49.906;8.598;2024-02-23T04:07:26;5.80;99.90
6666;DHT22;3369;49.906;8.598;2024-02-23T04:09:51;5.80;99.90
6666;DHT22;3369;49.906;8.598;2024-02-23T04:12:21;5.80;99.90
6666;DHT22;3369;49.906;8.598;2024-02-23T04:14:46;5.80;99.90
6666;DHT22;3369;49.906;8.598;2024-02-23T04:17:12;5.80;99.90
6666;DHT22;3369;49.906;8.598;2024-02-23T04:19:38;5.80;99.90
6666;DHT22;3369;49.906;8.598;2024-02-23T04:22:05;5.80;99.90
6666;DHT22;3369;49.906;8.598;2024-02-23T04:24:31;5.80;99.90
6666;DHT22;3369;49.906;8.598;2024-02-23T04:26:56;5.70;99.90
6666;DHT22;3369;49.906;8.598;2024-02-23T04:29:22;5.70;99.90
6666;DHT22;3369;49.906;8.598;2024-02-23T04:31:47;5.70;99.90
6666;DHT22;3369;49.906;8.598;2024-02-23T04:34:15;5.60;99.90
6666;DHT22;3369;49.906;8.598;2024-02-23T04:36:41;5.60;99.90
6666;DHT22;3369;49.906;8.598;2024-02-23T04:39:07;5.50;99.90
6666;DHT22;3369;49.906;8.598;2024-02-23T04:41:33;5.50;99.90
6666;DHT22;3369;49.906;8.598;2024-02-23T04:43:58;5.50;99.90
6666;DHT22;3369;49.906;8.598;2024-02-23T04:46:26;5.50;99.90
6666;DHT22;3369;49.906;8.598;2024-02-23T04:48:51;5.40;99.90
6666;DHT22;3369;49.906;8.598;2024-02-23T04:51:17;5.40;99.90
6666;DHT22;3369;49.906;8.598;2024-02-23T04:53:42;5.40;99.90
6666;DHT22;3369;49.906;8.598;2024-02-23T04:56:08;5.30;99.90
6666;DHT22;3369;49.906;8.598;2024-02-23T04:58:34;5.30;99.90
6666;DHT22;3369;49.906;8.598;2024-02-23T05:01:00;5.30;99.90
6666;DHT22;3369;49.906;8.598;2024-02-23T05:03:25;5.20;99.90
6666;DHT22;3369;49.906;8.598;2024-02-23T05:05:52;5.20;99.90
6666;DHT22;3369;49.906;8.598;2024-02-23T05:08:22;5.10;99.90
6666;DHT22;3369;49.906;8.598;2024-02-23T05:10:50;5.10;99.90
6666;DHT22;3369;49.906;8.598;2024-02-23T05:13:16;5.00;99.90
6666;DHT22;3369;49.906;8.598;2024-02-23T05:15:42;5.00;99.90
6666;DHT22;3369;49.906;8.598;2024-02-23T05:18:07;5.00;99.90
6666;DHT22;3369;49.906;8.598;2024-02-23T05:20:33;5.00;99.90
6666;DHT22;3369;49.906;8.598;2024-02-23T05:22:58;5.00;99.90
6666;DHT22;3369;49.906;8.598;2024-02-23T05:25:24;5.00;99.90
6666;DHT22;3369;49.906;8.598;2024-02-23T05:27:51;5.00;99.90
6666;DHT22;3369;49.906;8.598;2024-02-23T05:30:17;5.00;99.90
6666;DHT22;3369;49.906;8.598;2024-02-23T05:32:42;5.00;99.90
6666;DHT22;3369;49.906;8.598;2024-02-23T05:35:08;5.00;99.90
6666;DHT22;3369;49.906;8.598;2024-02-23T05:37:35;5.00;99.90
6666;DHT22;3369;49.906;8.598;2024-02-23T05:40:00;5.00;99.90
6666;DHT22;3369;49.906;8.598;2024-02-23T05:42:31;5.00;99.90
6666;DHT22;3369;49.906;8.598;2024-02-23T05:44:57;5.00;99.90
6666;DHT22;3369;49.906;8.598;2024-02-23T05:47:23;5.10;99.90
6666;DHT22;3369;49.906;8.598;2024-02-23T05:49:50;5.10;99.90
6666;DHT22;3369;49.906;8.598;2024-02-23T05:52:15;5.10;99.90
6666;DHT22;3369;49.906;8.598;2024-02-23T05:54:41;5.10;99.90
6666;DHT22;3369;49.906;8.598;2024-02-23T05:57:07;5.10;99.90
6666;DHT22;3369;49.906;8.598;2024-02-23T05:59:32;5.00;99.90
6666;DHT22;3369;49.906;8.598;2024-02-23T06:01:58;5.00;99.90
6666;DHT22;3369;49.906;8.598;2024-02-23T06:04:24;5.10;99.90
6666;DHT22;3369;49.906;8.598;2024-02-23T06:06:49;5.00;99.90
6666;DHT22;3369;49.906;8.598;2024-02-23T06:09:15;5.10;99.90
6666;DHT22;3369;49.906;8.598;2024-02-23T06:11:41;5.10;99.90
6666;DHT22;3369;49.906;8.598;2024-02-23T06:14:07;5.10;99.90
6666;DHT22;3369;49.906;8.598;2024-02-23T06:16:33;5.10;99.90
6666;DHT22;3369;49.906;8.598;2024-02-23T06:18:59;5.20;99.90
6666;DHT22;3369;49.906;8.598;2024-02-23T06:21:24;5.20;99.90
6666;DHT22;3369;49.906;8.598;2024-02-23T06:23:50;5.20;99.90
6666;DHT22;3369;49.906;8.598;2024-02-23T06:26:16;5.30;99.90
6666;DHT22;3369;49.906;8.598;2024-02-23T06:28:42;5.40;99.90
6666;DHT22;3369;49.906;8.598;2024-02-23T06:31:09;5.40;99.90
6666;DHT22;3369;49.906;8.598;2024-02-23T06:33:35;5.50;99.90
6666;DHT22;3369;49.906;8.598;2024-02-23T06:36:01;5.50;99.90
6666;DHT22;3369;49.906;8.598;2024-02-23T06:38:27;5.50;99.90
6666;DHT22;3369;49.906;8.598;2024-02-23T06:40:54;5.50;99.90
6666;DHT22;3369;49.906;8.598;2024-02-23T06:43:20;5.50;99.90
6666;DHT22;3369;49.906;8.598;2024-02-23T06:45:46;5.60;99.90
6666;DHT22;3369;49.906;8.598;2024-02-23T06:48:11;5.60;99.90
6666;DHT22;3369;49.906;8.598;2024-02-23T06:50:37;5.60;99.90
6666;DHT22;3369;49.906;8.598;2024-02-23T06:53:03;5.70;99.90
6666;DHT22;3369;49.906;8.598;2024-02-23T06:55:28;5.70;99.90
6666;DHT22;3369;49.906;8.598;2024-02-23T06:57:54;5.70;99.90
6666;DHT22;3369;49.906;8.598;2024-02-23T07:00:20;5.70;99.90
6666;DHT22;3369;49.906;8.598;2024-02-23T07:02:47;5.70;99.90
6666;DHT22;3369;49.906;8.598;2024-02-23T07:05:12;5.70;99.90
6666;DHT22;3369;49.906;8.598;2024-02-23T07:07:39;5.70;99.90
6666;DHT22;3369;49.906;8.598;2024-02-23T07:10:06;5.70;99.90
6666;DHT22;3369;49.906;8.598;2024-02-23T07:12:32;5.70;99.90
6666;DHT22;3369;49.906;8.598;2024-02-23T07:14:58;5.80;99.90
6666;DHT22;3369;49.906;8.598;2024-02-23T07:17:23;5.80;99.90
6666;DHT22;3369;49.906;8.598;2024-02-23T07:19:49;5.90;99.90
6666;DHT22;3369;49.906;8.598;2024-02-23T07:22:16;5.90;99.90
6666;DHT22;3369;49.906;8.598;2024-02-23T07:24:43;6.00;99.90
6666;DHT22;3369;49.906;8.598;2024-02-23T07:27:09;6.00;99.90
6666;DHT22;3369;49.906;8.598;2024-02-23T07:29:35;6.00;99.90
6666;DHT22;3369;49.906;8.598;2024-02-23T07:32:01;6.10;99.90
6666;DHT22;3369;49.906;8.598;2024-02-23T07:34:26;6.10;99.90
6666;DHT22;3369;49.906;8.598;2024-02-23T07:36:52;6.10;99.90
6666;DHT22;3369;49.906;8.598;2024-02-23T07:39:18;6.10;99.90
6666;DHT22;3369;49.906;8.598;2024-02-23T07:41:44;6.00;99.90
6666;DHT22;3369;49.906;8.598;2024-02-23T07:44:10;5.90;99.90
6666;DHT22;3369;49.906;8.598;2024-02-23T07:46:35;5.80;99.90
6666;DHT22;3369;49.906;8.598;2024-02-23T07:49:01;5.80;99.90
6666;DHT22;3369;49.906;8.598;2024-02-23T07:51:26;5.80;99.90
6666;DHT22;3369;49.906;8.598;2024-02-23T07:53:52;5.80;99.90
6666;DHT22;3369;49.906;8.598;2024-02-23T07:56:17;5.80;99.90
6666;DHT22;3369;49.906;8.598;2024-02-23T07:58:43;5.80;99.90
6666;DHT22;3369;49.906;8.598;2024-02-23T08:01:09;5.80;99.90
6666;DHT22;3369;49.906;8.598;2024-02-23T08:03:34;5.90;99.90
6666;DHT22;3369;49.906;8.598;2024-02-23T08:06:00;6.00;99.90
6666;DHT22;3369;49.906;8.598;2024-02-23T08:08:26;6.10;99.90
6666;DHT22;3369;49.906;8.598;2024-02-23T08:10:53;6.20;99.90
6666;DHT22;3369;49.906;8.598;2024-02-23T08:13:19;6.30;99.90
6666;DHT22;3369;49.906;8.598;2024-02-23T08:15:44;6.40;99.90
6666;DHT22;3369;49.906;8.598;2024-02-23T08:18:10;6.40;99.90
6666;DHT22;3369;49.906;8.598;2024-02-23T08:20:36;6.40;99.90
6666;DHT22;3369;49.906;8.598;2024-02-23T08:23:02;6.40;99.90
6666;DHT22;3369;49.906;8.598;2024-02-23T08:25:28;6.40;99.90
6666;DHT22;3369;49.906;8.598;2024-02-23T08:27:55;6.40;99.90
6666;DHT22;3369;49.906;8.598;2024-02-23T08:30:23;6.50;99.90
6666;DHT22;3369;49.906;8.598;2024-02-23T08:32:49;6.40;99.90
6666;DHT22;3369;49.906;8.598;2024-02-23T08:35:15;6.50;99.90
6666;DHT22;3369;49.906;8.598;2024-02-23T08:37:40;6.50;99.90
6666;DHT22;3369;49.906;8.598;2024-02-23T08:40:08;6.70;99.90
6666;DHT22;3369;49.906;8.598;2024-02-23T08:42:34;6.70;99.90
6666;DHT22;3369;49.906;8.598;2024-02-23T08:44:59;6.60;99.90
6666;DHT22;3369;49.906;8.598;2024-02-23T08:47:25;6.70;99.90
6666;DHT22;3369;49.906;8.598;2024-02-23T08:49:57;6.70;99.90
6666;DHT22;3369;49.906;8.598;2024-02-23T08:52:23;6.60;99.90
6666;DHT22;3369;49.906;8.598;2024-02-23T08:54:48;6.60;99.90
6666;DHT22;3369;49.906;8.598;2024-02-23T08:57:14;6.70;99.90
6666;DHT22;3369;49.906;8.598;2024-02-23T08:59:44;6.70;99.90
6666;DHT22;3369;49.906;8.598;2024-02-23T09:02:10;6.80;99.90
6666;DHT22;3369;49.906;8.598;2024-02-23T09:04:36;6.80;99.90
6666;DHT22;3369;49.906;8.598;2024-02-23T09:07:01;6.80;99.90
6666;DHT22;3369;49.906;8.598;2024-02-23T09:09:27;6.90;99.90
6666;DHT22;3369;49.906;8.598;2024-02-23T09:11:53;6.90;99.90
6666;DHT22;3369;49.906;8.598;2024-02-23T09:14:18;6.90;99.90
6666;DHT22;3369;49.906;8.598;2024-02-23T09:16:44;6.80;99.90
6666;DHT22;3369;49.906;8.598;2024-02-23T09:19:11;6.80;99.90
6666;DHT22;3369;49.906;8.598;2024-02-23T09:21:37;6.80;99.90
6666;DHT22;3369;49.906;8.598;2024-02-23T09:24:03;6.90;99.90
6666;DHT22;3369;49.906;8.598;2024-02-23T09:26:29;6.90;99.90
6666;DHT22;3369;49.906;8.598;2024-02-23T09:28:55;7.00;99.90
6666;DHT22;3369;49.906;8.598;2024-02-23T09:31:21;7.00;99.90
6666;DHT22;3369;49.906;8.598;2024-02-23T09:33:46;7.10;99.90
6666;DHT22;3369;49.906;8.598;2024-02-23T09:36:14;7.10;99.90
6666;DHT22;3369;49.906;8.598;2024-02-23T09:38:39;7.20;99.90
6666;DHT22;3369;49.906;8.598;2024-02-23T09:41:11;7.20;99.90
6666;DHT22;3369;49.906;8.598;2024-02-23T09:43:42;7.20;99.90
6666;DHT22;3369;49.906;8.598;2024-02-23T09:46:09;7.30;99.90
6666;DHT22;3369;49.906;8.598;2024-02-23T09:48:34;7.30;99.90
6666;DHT22;3369;49.906;8.598;2024-02-23T09:51:01;7.30;99.90
6666;DHT22;3369;49.906;8.598;2024-02-23T09:53:26;7.30;99.90
6666;DHT22;3369;49.906;8.598;2024-02-23T09:55:53;7.40;99.90
6666;DHT22;3369;49.906;8.598;2024-02-23T09:58:20;7.50;99.90
6666;DHT22;3369;49.906;8.598;2024-02-23T10:00:47;7.50;99.90
6666;DHT22;3369;49.906;8.598;2024-02-23T10:03:12;7.40;99.80
6666;DHT22;3369;49.906;8.598;2024-02-23T10:05:38;7.40;99.90
6666;DHT22;3369;49.906;8.598;2024-02-23T10:08:04;7.40;99.70
6666;DHT22;3369;49.906;8.598;2024-02-23T10:10:32;7.40;99.80
6666;DHT22;3369;49.906;8.598;2024-02-23T10:12:58;7.40;99.90
6666;DHT22;3369;49.906;8.598;2024-02-23T10:15:24;7.50;99.90
6666;DHT22;3369;49.906;8.598;2024-02-23T10:17:50;7.50;99.90
6666;DHT22;3369;49.906;8.598;2024-02-23T10:20:15;7.50;99.60
6666;DHT22;3369;49.906;8.598;2024-02-23T10:22:42;7.60;99.90
6666;DHT22;3369;49.906;8.598;2024-02-23T10:25:09;7.70;99.90
6666;DHT22;3369;49.906;8.598;2024-02-23T10:27:35;7.80;99.90
6666;DHT22;3369;49.906;8.598;2024-02-23T10:30:00;7.80;99.80
6666;DHT22;3369;49.906;8.598;2024-02-23T10:32:29;7.70;99.80
6666;DHT22;3369;49.906;8.598;2024-02-23T10:35:00;7.80;99.90
6666;DHT22;3369;49.906;8.598;2024-02-23T10:37:26;7.80;99.90
6666;DHT22;3369;49.906;8.598;2024-02-23T10:39:57;7.80;99.90
6666;DHT22;3369;49.906;8.598;2024-02-23T10:42:29;7.80;99.90
6666;DHT22;3369;49.906;8.598;2024-02-23T10:44:58;7.80;99.90
6666;DHT22;3369;49.906;8.598;2024-02-23T10:47:28;7.80;99.90
6666;DHT22;3369;49.906;8.598;2024-02-23T10:49:57;8.00;99.90
6666;DHT22;3369;49.906;8.598;2024-02-23T10:52:26;8.30;99.90
6666;DHT22;3369;49.906;8.598;2024-02-23T10:54:52;8.60;99.80
6666;DHT22;3369;49.906;8.598;2024-02-23T10:57:19;8.70;99.30
6666;DHT22;3369;49.906;8.598;2024-02-23T10:59:48;8.60;98.50
6666;DHT22;3369;49.906;8.598;2024-02-23T11:02:18;8.40;98.80
6666;DHT22;3369;49.906;8.598;2024-02-23T11:04:49;8.50;99.50
6666;DHT22;3369;49.906;8.598;2024-02-23T11:07:18;8.60;99.80
6666;DHT22;3369;49.906;8.598;2024-02-23T11:09:52;8.50;99.60
6666;DHT22;3369;49.906;8.598;2024-02-23T11:12:29;8.50;99.30
6666;DHT22;3369;49.906;8.598;2024-02-23T11:14:59;8.40;99.90
6666;DHT22;3369;49.906;8.598;2024-02-23T11:17:33;8.20;99.90
6666;DHT22;3369;49.906;8.598;2024-02-23T11:20:03;8.20;99.90
6666;DHT22;3369;49.906;8.598;2024-02-23T11:22:35;8.10;99.90
6666;DHT22;3369;49.906;8.598;2024-02-23T11:25:06;8.10;99.90
6666;DHT22;3369;49.906;8.598;2024-02-23T11:27:34;8.20;99.90
6666;DHT22;3369;49.906;8.598;2024-02-23T11:30:04;8.10;99.90
6666;DHT22;3369;49.906;8.598;2024-02-23T11:32:44;8.10;99.90
6666;DHT22;3369;49.906;8.598;2024-02-23T11:35:13;8.00;99.90
6666;DHT22;3369;49.906;8.598;2024-02-23T11:40:28;8.10;99.90
6666;DHT22;3369;49.906;8.598;2024-02-23T11:42:55;8.20;99.90
6666;DHT22;3369;49.906;8.598;2024-02-23T11:45:21;8.30;99.90
6666;DHT22;3369;49.906;8.598;2024-02-23T11:47:47;8.30;99.90
6666;DHT22;3369;49.906;8.598;2024-02-23T11:50:14;8.30;99.90
6666;DHT22;3369;49.906;8.598;2024-02-23T11:52:41;8.40;99.90
6666;DHT22;3369;49.906;8.598;2024-02-23T11:55:07;8.40;99.90
6666;DHT22;3369;49.906;8.598;2024-02-23T11:57:36;8.30;99.90
6666;DHT22;3369;49.906;8.598;2024-02-23T12:00:04;8.30;99.90
6666;DHT22;3369;49.906;8.598;2024-02-23T12:02:32;8.30;99.90
6666;DHT22;3369;49.906;8.598;2024-02-23T12:04:58;8.30;99.90
6666;DHT22;3369;49.906;8.598;2024-02-23T12:07:23;8.20;99.90
6666;DHT22;3369;49.906;8.598;2024-02-23T12:09:51;8.30;99.90
6666;DHT22;3369;49.906;8.598;2024-02-23T12:12:17;8.40;99.90
6666;DHT22;3369;49.906;8.598;2024-02-23T12:14:44;8.40;99.90
6666;DHT22;3369;49.906;8.598;2024-02-23T12:17:09;8.40;99.90
6666;DHT22;3369;49.906;8.598;2024-02-23T12:19:41;8.30;99.90
6666;DHT22;3369;49.906;8.598;2024-02-23T12:22:07;8.20;99.90
6666;DHT22;3369;49.906;8.598;2024-02-23T12:24:34;8.20;99.90
6666;DHT22;3369;49.906;8.598;2024-02-23T12:27:00;8.10;99.90
6666;DHT22;3369;49.906;8.598;2024-02-23T12:29:25;8.10;99.90
6666;DHT22;3369;49.906;8.598;2024-02-23T12:32:02;8.10;99.90
6666;DHT22;3369;49.906;8.598;2024-02-23T12:34:28;8.00;99.90
6666;DHT22;3369;49.906;8.598;2024-02-23T12:36:55;7.90;99.90
6666;DHT22;3369;49.906;8.598;2024-02-23T12:39:21;7.90;99.90
6666;DHT22;3369;49.906;8.598;2024-02-23T12:41:46;7.90;99.90
6666;DHT22;3369;49.906;8.598;2024-02-23T12:44:12;7.90;99.90
6666;DHT22;3369;49.906;8.598;2024-02-23T12:46:38;7.90;99.90
6666;DHT22;3369;49.906;8.598;2024-02-23T12:49:03;7.90;99.90
6666;DHT22;3369;49.906;8.598;2024-02-23T12:51:29;7.90;99.90
6666;DHT22;3369;49.906;8.598;2024-02-23T12:53:54;7.90;99.90
6666;DHT22;3369;49.906;8.598;2024-02-23T12:56:20;7.90;99.90
6666;DHT22;3369;49.906;8.598;2024-02-23T12:58:46;8.10;99.90
6666;DHT22;3369;49.906;8.598;2024-02-23T13:01:11;8.20;99.90
6666;DHT22;3369;49.906;8.598;2024-02-23T13:03:38;8.20;99.90
6666;DHT22;3369;49.906;8.598;2024-02-23T13:06:06;8.20;99.90
6666;DHT22;3369;49.906;8.598;2024-02-23T13:08:33;8.20;99.90
6666;DHT22;3369;49.906;8.598;2024-02-23T13:10:59;8.30;99.90
6666;DHT22;3369;49.906;8.598;2024-02-23T13:13:25;8.40;99.90
6666;DHT22;3369;49.906;8.598;2024-02-23T13:15:52;8.60;99.90
6666;DHT22;3369;49.906;8.598;2024-02-23T13:18:18;8.90;99.90
6666;DHT22;3369;49.906;8.598;2024-02-23T13:20:45;9.00;99.90
6666;DHT22;3369;49.906;8.598;2024-02-23T13:23:11;9.00;99.90
6666;DHT22;3369;49.906;8.598;2024-02-23T13:25:40;9.10;99.90
6666;DHT22;3369;49.906;8.598;2024-02-23T13:28:07;9.20;99.90
6666;DHT22;3369;49.906;8.598;2024-02-23T13:30:34;9.40;99.90
6666;DHT22;3369;49.906;8.598;2024-02-23T13:33:00;9.40;99.90
6666;DHT22;3369;49.906;8.598;2024-02-23T13:35:26;9.40;99.90
6666;DHT22;3369;49.906;8.598;2024-02-23T13:37:52;9.30;99.70
6666;DHT22;3369;49.906;8.598;2024-02-23T13:40:18;9.20;99.30
6666;DHT22;3369;49.906;8.598;2024-02-23T13:42:44;9.10;99.40
6666;DHT22;3369;49.906;8.598;2024-02-23T13:45:15;9.10;99.30
6666;DHT22;3369;49.906;8.598;2024-02-23T13:47:41;9.00;99.50
6666;DHT22;3369;49.906;8.598;2024-02-23T13:50:08;9.00;99.60
6666;DHT22;3369;49.906;8.598;2024-02-23T13:52:34;9.00;99.80
6666;DHT22;3369;49.906;8.598;2024-02-23T13:55:00;9.00;99.90
6666;DHT22;3369;49.906;8.598;2024-02-23T13:57:26;9.00;99.90
6666;DHT22;3369;49.906;8.598;2024-02-23T13:59:51;9.00;99.90
6666;DHT22;3369;49.906;8.598;2024-02-23T14:02:24;8.90;99.70
6666;DHT22;3369;49.906;8.598;2024-02-23T14:04:50;8.90;99.70
6666;DHT22;3369;49.906;8.598;2024-02-23T14:07:16;8.90;99.60
6666;DHT22;3369;49.906;8.598;2024-02-23T14:09:42;8.90;99.60
6666;DHT22;3369;49.906;8.598;2024-02-23T14:12:08;8.90;99.80
6666;DHT22;3369;49.906;8.598;2024-02-23T14:14:34;8.90;99.40
6666;DHT22;3369;49.906;8.598;2024-02-23T14:16:59;8.90;99.50
6666;DHT22;3369;49.906;8.598;2024-02-23T14:19:25;8.90;99.50
6666;DHT22;3369;49.906;8.598;2024-02-23T14:21:52;8.80;99.50
6666;DHT22;3369;49.906;8.598;2024-02-23T14:24:17;8.80;99.60
6666;DHT22;3369;49.906;8.598;2024-02-23T14:26:43;8.70;99.90
6666;DHT22;3369;49.906;8.598;2024-02-23T14:29:09;8.70;99.90
6666;DHT22;3369;49.906;8.598;2024-02-23T14:31:34;8.60;99.90
6666;DHT22;3369;49.906;8.598;2024-02-23T14:34:00;8.70;99.90
6666;DHT22;3369;49.906;8.598;2024-02-23T14:36:25;8.70;99.90
6666;DHT22;3369;49.906;8.598;2024-02-23T14:38:52;8.70;99.90
6666;DHT22;3369;49.906;8.598;2024-02-23T14:41:17;8.80;99.90
6666;DHT22;3369;49.906;8.598;2024-02-23T14:43:43;8.70;99.90
6666;DHT22;3369;49.906;8.598;2024-02-23T14:46:09;8.60;99.90
6666;DHT22;3369;49.906;8.598;2024-02-23T14:48:34;8.50;99.90
6666;DHT22;3369;49.906;8.598;2024-02-23T14:51:00;8.40;99.90
6666;DHT22;3369;49.906;8.598;2024-02-23T14:53:29;8.30;99.90
6666;DHT22;3369;49.906;8.598;2024-02-23T14:55:55;8.30;99.90
6666;DHT22;3369;49.906;8.598;2024-02-23T14:58:20;8.30;99.90
6666;DHT22;3369;49.906;8.598;2024-02-23T15:00:46;8.40;99.90
6666;DHT22;3369;49.906;8.598;2024-02-23T15:03:12;8.50;99.90
6666;DHT22;3369;49.906;8.598;2024-02-23T15:05:39;8.50;99.90
6666;DHT22;3369;49.906;8.598;2024-02-23T15:08:06;8.60;99.90
6666;DHT22;3369;49.906;8.598;2024-02-23T15:10:33;8.70;99.90
6666;DHT22;3369;49.906;8.598;2024-02-23T15:12:58;8.70;99.90
6666;DHT22;3369;49.906;8.598;2024-02-23T15:15:24;8.80;99.90
6666;DHT22;3369;49.906;8.598;2024-02-23T15:17:49;8.80;99.90
6666;DHT22;3369;49.906;8.598;2024-02-23T15:20:16;8.90;99.90
6666;DHT22;3369;49.906;8.598;2024-02-23T15:22:41;8.90;99.90
6666;DHT22;3369;49.906;8.598;2024-02-23T15:25:09;9.00;99.90
6666;DHT22;3369;49.906;8.598;2024-02-23T15:27:35;9.00;99.90
6666;DHT22;3369;49.906;8.598;2024-02-23T15:30:01;9.00;99.90
6666;DHT22;3369;49.906;8.598;2024-02-23T15:32:27;9.10;99.90
6666;DHT22;3369;49.906;8.598;2024-02-23T15:34:52;9.10;99.90
6666;DHT22;3369;49.906;8.598;2024-02-23T15:37:18;9.10;99.90
6666;DHT22;3369;49.906;8.598;2024-02-23T15:39:44;9.10;99.90
6666;DHT22;3369;49.906;8.598;2024-02-23T15:42:10;9.10;99.90
6666;DHT22;3369;49.906;8.598;2024-02-23T15:44:36;9.00;99.90
6666;DHT22;3369;49.906;8.598;2024-02-23T15:47:02;8.90;99.90
6666;DHT22;3369;49.906;8.598;2024-02-23T15:49:27;8.90;99.90
6666;DHT22;3369;49.906;8.598;2024-02-23T15:51:53;8.90;99.90
6666;DHT22;3369;49.906;8.598;2024-02-23T15:54:18;8.90;99.90
6666;DHT22;3369;49.906;8.598;2024-02-23T15:56:44;9.00;99.90
6666;DHT22;3369;49.906;8.598;2024-02-23T15:59:10;9.00;99.90
6666;DHT22;3369;49.906;8.598;2024-02-23T16:01:36;9.00;99.90
6666;DHT22;3369;49.906;8.598;2024-02-23T16:04:03;9.00;99.90
6666;DHT22;3369;49.906;8.598;2024-02-23T16:06:29;9.00;99.90
6666;DHT22;3369;49.906;8.598;2024-02-23T16:08:59;8.90;99.90
6666;DHT22;3369;49.906;8.598;2024-02-23T16:11:25;8.90;99.90
6666;DHT22;3369;49.906;8.598;2024-02-23T16:13:52;8.90;99.90